Ag. Antonios — SV4218 — position and weather

sailwx.info

Track history (hours):
 
Tides and Currents Weather Stations Pressure Air Temp Water Temp Dewpoint Dewpoint Depression Visibility Wind Speed Wind Dir Waves Ship Positions

Ag. Antonios

Last reported at 2018-Jun-16 01:21 UTC. Time now 2018-Jun-18 02:13 UTC.
Position N 39°56' E 025°28'.

Length 67 m; draft 2 m.

Type: Cargo ship. MMSI: 237112600.

Date/timePositionNaut miles runAvg speedWind from/ knotsBaromVisibWave heightAir tempDewpointWater temp
2018-Jun-16 01:21N 39°56' E 025°28'92 3.3
2018-Jun-14 21:32N 38°31' E 024°42'010.3
2018-Jun-14 21:30N 38°32' E 024°43'510.3
2018-Jun-14 21:00N 38°37' E 024°44'510.2
2018-Jun-14 20:31N 38°42' E 024°45'510.2
2018-Jun-14 20:00N 38°47' E 024°46'1210.6
2018-Jun-14 18:55N 38°58' E 024°48'2210.6
2018-Jun-14 16:50N 39°20' E 024°53'1610.4
2018-Jun-14 15:19N 39°36' E 024°56'2310.1
2018-Jun-14 13:03N 39°58' E 025°01'2 9.9
2018-Jun-14 12:52N 39°60' E 025°01'410.3
2018-Jun-14 12:28N 40°04' E 025°03'510.5
2018-Jun-14 11:57N 40°09' E 025°06'510.3
2018-Jun-14 11:29N 40°13' E 025°09'510.2
2018-Jun-14 11:00N 40°17' E 025°12'5 9.8
2018-Jun-14 10:30N 40°21' E 025°16'5 9.8
2018-Jun-14 10:00N 40°24' E 025°21'5 9.4
2018-Jun-14 09:31N 40°28' E 025°25'510.3
2018-Jun-14 09:01N 40°32' E 025°29'611.0
2018-Jun-14 08:30N 40°36' E 025°34'610.8
2018-Jun-14 07:58N 40°40' E 025°40'510.4
2018-Jun-14 07:30N 40°43' E 025°45'510.4
2018-Jun-14 07:00N 40°47' E 025°50'5 0.4
2018-Jun-13 18:34N 40°50' E 025°53'0 0.0
2018-Jun-13 18:26N 40°50' E 025°53'0 0.0
2018-Jun-13 16:40N 40°50' E 025°53'2 8.7
2018-Jun-13 16:28N 40°49' E 025°53'510.8
2018-Jun-13 16:00N 40°44' E 025°51'910.9
2018-Jun-13 15:11N 40°36' E 025°47'211.1
2018-Jun-13 15:01N 40°34' E 025°46'1411.0
2018-Jun-13 13:47N 40°21' E 025°40'310.9
2018-Jun-13 13:30N 40°18' E 025°39'611.1
2018-Jun-13 13:00N 40°13' E 025°36'511.0
2018-Jun-13 12:30N 40°08' E 025°34'611.1
2018-Jun-13 12:00N 40°03' E 025°31'16410.1
2018-Jun-12 19:42N 37°39' E 023°49'211.5
2018-Jun-12 19:30N 37°39' E 023°46'510.1
2018-Jun-12 19:00N 37°43' E 023°41'511.1
2018-Jun-12 18:30N 37°48' E 023°38'510.8
2018-Jun-12 18:01N 37°53' E 023°36'5 9.7
2018-Jun-12 17:31N 37°57' E 023°34'5 9.8
2018-Jun-12 17:00N 38°02' E 023°33'0 0.1
2018-Jun-12 16:30N 38°02' E 023°33'0 0.0
2018-Jun-12 16:00N 38°02' E 023°33'0 0.0
2018-Jun-12 15:30N 38°02' E 023°33'0 0.0
2018-Jun-12 15:00N 38°02' E 023°33'0 0.0
2018-Jun-12 14:30N 38°02' E 023°33'0 0.0
2018-Jun-12 14:00N 38°02' E 023°33'0 0.0
2018-Jun-12 13:30N 38°02' E 023°33'0 0.0
2018-Jun-12 13:00N 38°02' E 023°33'0 0.0
2018-Jun-12 12:30N 38°02' E 023°33'0 0.0
2018-Jun-12 12:00N 38°02' E 023°33'0 0.0
2018-Jun-12 11:30N 38°02' E 023°33'0 0.0
2018-Jun-12 11:00N 38°02' E 023°33'0 0.0
2018-Jun-12 10:30N 38°02' E 023°33'0 0.0
2018-Jun-12 10:00N 38°02' E 023°33'0 0.0
2018-Jun-12 09:30N 38°02' E 023°33'0 0.0
2018-Jun-12 09:00N 38°02' E 023°33'0 0.0
2018-Jun-12 08:30N 38°02' E 023°33'0 0.0
2018-Jun-12 08:00N 38°02' E 023°33'0 0.0
2018-Jun-12 07:30N 38°02' E 023°33'0 0.0
2018-Jun-12 07:00N 38°02' E 023°33'0 0.0
2018-Jun-12 06:30N 38°02' E 023°33'0 0.0
2018-Jun-12 06:00N 38°02' E 023°33'0 0.0
2018-Jun-12 05:30N 38°02' E 023°33'0 0.0
2018-Jun-12 05:00N 38°02' E 023°33'0 0.0
2018-Jun-12 04:30N 38°02' E 023°33'0 0.0
2018-Jun-12 04:00N 38°02' E 023°33'0 0.0
2018-Jun-12 03:30N 38°02' E 023°33'0 0.0
2018-Jun-12 03:00N 38°02' E 023°33'0 0.0
2018-Jun-12 02:30N 38°02' E 023°33'0 0.0
2018-Jun-12 02:00N 38°02' E 023°33'0 0.0
2018-Jun-12 01:29N 38°02' E 023°33'0 0.0
2018-Jun-12 01:00N 38°02' E 023°33'0 0.0
2018-Jun-12 00:30N 38°02' E 023°33'0 0.0
2018-Jun-12 00:00N 38°02' E 023°33'0 0.0
2018-Jun-11 23:30N 38°02' E 023°33'0 0.0
2018-Jun-11 23:00N 38°02' E 023°33'0 0.0
2018-Jun-11 22:30N 38°02' E 023°33'0 0.0
2018-Jun-11 22:00N 38°02' E 023°33'0 0.0
2018-Jun-11 21:30N 38°02' E 023°33'0 0.0
2018-Jun-11 21:00N 38°02' E 023°33'0 0.0
2018-Jun-11 20:30N 38°02' E 023°33'0 0.0
2018-Jun-11 20:00N 38°02' E 023°33'0 0.0
2018-Jun-11 19:30N 38°02' E 023°33'0 0.0
2018-Jun-11 19:00N 38°02' E 023°33'0 0.0
2018-Jun-11 18:30N 38°02' E 023°33'0 0.0
2018-Jun-11 18:00N 38°02' E 023°33'0 0.0
2018-Jun-11 17:30N 38°02' E 023°33'0 0.0
2018-Jun-11 17:00N 38°02' E 023°33'0 0.0
2018-Jun-11 16:30N 38°02' E 023°33'0 0.0
2018-Jun-11 16:00N 38°02' E 023°33'0 0.0
2018-Jun-11 15:30N 38°02' E 023°33'0 0.0
2018-Jun-11 15:00N 38°02' E 023°33'0 0.0
2018-Jun-11 14:30N 38°02' E 023°33'0 0.0
2018-Jun-11 14:00N 38°02' E 023°33'0 0.0
2018-Jun-11 13:30N 38°02' E 023°33'0 0.0
2018-Jun-11 13:00N 38°02' E 023°33'0 0.0
2018-Jun-11 12:30N 38°02' E 023°33'0 0.0
2018-Jun-11 12:00N 38°02' E 023°33'0 0.0
2018-Jun-11 11:30N 38°02' E 023°33'0 0.0
2018-Jun-11 11:00N 38°02' E 023°33'0 0.0
2018-Jun-11 10:30N 38°02' E 023°33'0 0.0
2018-Jun-11 10:00N 38°02' E 023°33'0 0.0
2018-Jun-11 09:30N 38°02' E 023°33'0 0.0
2018-Jun-11 09:00N 38°02' E 023°33'0 0.0
2018-Jun-11 08:30N 38°02' E 023°33'0 0.0
2018-Jun-11 08:00N 38°02' E 023°33'0 0.0
2018-Jun-11 07:30N 38°02' E 023°33'0 0.0
2018-Jun-11 07:00N 38°02' E 023°33'0 0.0
2018-Jun-11 06:30N 38°02' E 023°33'0 0.0
2018-Jun-11 06:00N 38°02' E 023°33'0 0.0
2018-Jun-11 05:30N 38°02' E 023°33'0 0.0
2018-Jun-11 05:00N 38°02' E 023°33'0 0.0
2018-Jun-11 04:30N 38°02' E 023°33'0 0.0
2018-Jun-11 04:00N 38°02' E 023°33'0 0.0
2018-Jun-11 03:30N 38°02' E 023°33'0 0.0
2018-Jun-11 03:00N 38°02' E 023°33'0 0.0
2018-Jun-11 02:30N 38°02' E 023°33'0 0.0
2018-Jun-11 01:59N 38°02' E 023°33'0 0.0
2018-Jun-11 01:30N 38°02' E 023°33'0 0.0
2018-Jun-11 01:00N 38°02' E 023°33'0 0.0
2018-Jun-11 00:30N 38°02' E 023°33'0 0.0
2018-Jun-11 00:00N 38°02' E 023°33'0 0.0
2018-Jun-10 23:30N 38°02' E 023°33'0 0.0
2018-Jun-10 23:00N 38°02' E 023°33'0 0.0
2018-Jun-10 22:30N 38°02' E 023°33'0 0.0
2018-Jun-10 22:00N 38°02' E 023°33'0 0.0
2018-Jun-10 21:30N 38°02' E 023°33'0 0.0
2018-Jun-10 21:00N 38°02' E 023°33'0 0.0
2018-Jun-10 20:30N 38°02' E 023°33'0 0.0
2018-Jun-10 20:00N 38°02' E 023°33'0 0.0
2018-Jun-10 19:30N 38°02' E 023°33'0 0.0
2018-Jun-10 19:00N 38°02' E 023°33'0 0.0
2018-Jun-10 18:30N 38°02' E 023°33'0 0.0
2018-Jun-10 18:00N 38°02' E 023°33'0 0.0
2018-Jun-10 17:30N 38°02' E 023°33'0 0.0
2018-Jun-10 17:00N 38°02' E 023°33'0 0.0
2018-Jun-10 16:30N 38°02' E 023°33'0 0.0
2018-Jun-10 16:00N 38°02' E 023°33'0 0.0
2018-Jun-10 15:30N 38°02' E 023°33'0 0.0
2018-Jun-10 15:00N 38°02' E 023°33'0 0.0
2018-Jun-10 14:30N 38°02' E 023°33'4 3.7
2018-Jun-10 13:30N 37°58' E 023°33'5 9.8
2018-Jun-10 13:00N 37°54' E 023°36'510.7
2018-Jun-10 12:30N 37°50' E 023°40'510.5
2018-Jun-10 12:00N 37°45' E 023°43'510.5
2018-Jun-10 11:30N 37°41' E 023°46'4710.9
2018-Jun-10 07:13N 37°31' E 024°44'211.5
2018-Jun-10 07:00N 37°31' E 024°47'810.9
2018-Jun-10 06:18N 37°30' E 024°57'310.4
2018-Jun-10 06:00N 37°27' E 024°57'1 1.0
2018-Jun-10 05:00N 37°26' E 024°56'0 0.0
2018-Jun-10 04:29N 37°26' E 024°56'0 0.0
2018-Jun-10 03:05N 37°26' E 024°56'0 0.0
2018-Jun-10 03:00N 37°26' E 024°56'0 0.0
2018-Jun-09 23:56N 37°26' E 024°56'0 0.0
2018-Jun-09 23:22N 37°26' E 024°56'0 0.0
2018-Jun-09 23:00N 37°26' E 024°56'0 0.0
2018-Jun-09 22:28N 37°26' E 024°56'0 0.0
2018-Jun-09 21:59N 37°26' E 024°56'0 0.0
2018-Jun-09 21:29N 37°26' E 024°56'0 0.0
2018-Jun-09 21:00N 37°26' E 024°56'0 0.0
2018-Jun-09 20:21N 37°26' E 024°56'0 0.0
2018-Jun-09 19:59N 37°26' E 024°56'0 0.0
2018-Jun-09 19:03N 37°26' E 024°56'1 3.5
2018-Jun-09 18:52N 37°26' E 024°57'411.1
2018-Jun-09 18:30N 37°22' E 024°59'610.9
2018-Jun-09 17:59N 37°17' E 025°02'611.0
2018-Jun-09 17:27N 37°12' E 025°05'7 2.3
2018-Jun-09 14:17N 37°05' E 025°08'5 8.9
2018-Jun-09 13:41N 37°09' E 025°13'210.5
2018-Jun-09 13:30N 37°10' E 025°15'510.4
2018-Jun-09 13:00N 37°07' E 025°21'2 3.0
2018-Jun-09 12:30N 37°06' E 025°22'1 1.3
2018-Jun-09 12:00N 37°06' E 025°22'1 1.3
2018-Jun-09 11:30N 37°06' E 025°22'611.1
2018-Jun-09 11:00N 37°01' E 025°19'  
Track history (hours):
 
Tides and Currents Weather Stations Pressure Air Temp Water Temp Dewpoint Dewpoint Depression Visibility Wind Speed Wind Dir Waves Ship Positions

Ag. Antonios

Last reported at 2018-Jun-16 01:21 UTC. Time now 2018-Jun-18 02:13 UTC.
Position N 39°56' E 025°28'.

Length 67 m; draft 2 m.

Type: Cargo ship. MMSI: 237112600.

Date/timePositionNaut miles runAvg speedWind from/ knotsBaromVisibWave heightAir tempDewpointWater temp
2018-Jun-16 01:21N 39°56' E 025°28'92 3.3
2018-Jun-14 21:32N 38°31' E 024°42'010.3
2018-Jun-14 21:30N 38°32' E 024°43'510.3
2018-Jun-14 21:00N 38°37' E 024°44'510.2
2018-Jun-14 20:31N 38°42' E 024°45'510.2
2018-Jun-14 20:00N 38°47' E 024°46'1210.6
2018-Jun-14 18:55N 38°58' E 024°48'2210.6
2018-Jun-14 16:50N 39°20' E 024°53'1610.4
2018-Jun-14 15:19N 39°36' E 024°56'2310.1
2018-Jun-14 13:03N 39°58' E 025°01'2 9.9
2018-Jun-14 12:52N 39°60' E 025°01'410.3
2018-Jun-14 12:28N 40°04' E 025°03'510.5
2018-Jun-14 11:57N 40°09' E 025°06'510.3
2018-Jun-14 11:29N 40°13' E 025°09'510.2
2018-Jun-14 11:00N 40°17' E 025°12'5 9.8
2018-Jun-14 10:30N 40°21' E 025°16'5 9.8
2018-Jun-14 10:00N 40°24' E 025°21'5 9.4
2018-Jun-14 09:31N 40°28' E 025°25'510.3
2018-Jun-14 09:01N 40°32' E 025°29'611.0
2018-Jun-14 08:30N 40°36' E 025°34'610.8
2018-Jun-14 07:58N 40°40' E 025°40'510.4
2018-Jun-14 07:30N 40°43' E 025°45'510.4
2018-Jun-14 07:00N 40°47' E 025°50'5 0.4
2018-Jun-13 18:34N 40°50' E 025°53'0 0.0
2018-Jun-13 18:26N 40°50' E 025°53'0 0.0
2018-Jun-13 16:40N 40°50' E 025°53'2 8.7
2018-Jun-13 16:28N 40°49' E 025°53'510.8
2018-Jun-13 16:00N 40°44' E 025°51'910.9
2018-Jun-13 15:11N 40°36' E 025°47'211.1
2018-Jun-13 15:01N 40°34' E 025°46'1411.0
2018-Jun-13 13:47N 40°21' E 025°40'310.9
2018-Jun-13 13:30N 40°18' E 025°39'611.1
2018-Jun-13 13:00N 40°13' E 025°36'511.0
2018-Jun-13 12:30N 40°08' E 025°34'611.1
2018-Jun-13 12:00N 40°03' E 025°31'16410.1
2018-Jun-12 19:42N 37°39' E 023°49'211.5
2018-Jun-12 19:30N 37°39' E 023°46'510.1
2018-Jun-12 19:00N 37°43' E 023°41'511.1
2018-Jun-12 18:30N 37°48' E 023°38'510.8
2018-Jun-12 18:01N 37°53' E 023°36'5 9.7
2018-Jun-12 17:31N 37°57' E 023°34'5 9.8
2018-Jun-12 17:00N 38°02' E 023°33'0 0.1
2018-Jun-12 16:30N 38°02' E 023°33'0 0.0
2018-Jun-12 16:00N 38°02' E 023°33'0 0.0
2018-Jun-12 15:30N 38°02' E 023°33'0 0.0
2018-Jun-12 15:00N 38°02' E 023°33'0 0.0
2018-Jun-12 14:30N 38°02' E 023°33'0 0.0
2018-Jun-12 14:00N 38°02' E 023°33'0 0.0
2018-Jun-12 13:30N 38°02' E 023°33'0 0.0
2018-Jun-12 13:00N 38°02' E 023°33'0 0.0
2018-Jun-12 12:30N 38°02' E 023°33'0 0.0
2018-Jun-12 12:00N 38°02' E 023°33'0 0.0
2018-Jun-12 11:30N 38°02' E 023°33'0 0.0
2018-Jun-12 11:00N 38°02' E 023°33'0 0.0
2018-Jun-12 10:30N 38°02' E 023°33'0 0.0
2018-Jun-12 10:00N 38°02' E 023°33'0 0.0
2018-Jun-12 09:30N 38°02' E 023°33'0 0.0
2018-Jun-12 09:00N 38°02' E 023°33'0 0.0
2018-Jun-12 08:30N 38°02' E 023°33'0 0.0
2018-Jun-12 08:00N 38°02' E 023°33'0 0.0
2018-Jun-12 07:30N 38°02' E 023°33'0 0.0
2018-Jun-12 07:00N 38°02' E 023°33'0 0.0
2018-Jun-12 06:30N 38°02' E 023°33'0 0.0
2018-Jun-12 06:00N 38°02' E 023°33'0 0.0
2018-Jun-12 05:30N 38°02' E 023°33'0 0.0
2018-Jun-12 05:00N 38°02' E 023°33'0 0.0
2018-Jun-12 04:30N 38°02' E 023°33'0 0.0
2018-Jun-12 04:00N 38°02' E 023°33'0 0.0
2018-Jun-12 03:30N 38°02' E 023°33'0 0.0
2018-Jun-12 03:00N 38°02' E 023°33'0 0.0
2018-Jun-12 02:30N 38°02' E 023°33'0 0.0
2018-Jun-12 02:00N 38°02' E 023°33'0 0.0
2018-Jun-12 01:29N 38°02' E 023°33'0 0.0
2018-Jun-12 01:00N 38°02' E 023°33'0 0.0
2018-Jun-12 00:30N 38°02' E 023°33'0 0.0
2018-Jun-12 00:00N 38°02' E 023°33'0 0.0
2018-Jun-11 23:30N 38°02' E 023°33'0 0.0
2018-Jun-11 23:00N 38°02' E 023°33'0 0.0
2018-Jun-11 22:30N 38°02' E 023°33'0 0.0
2018-Jun-11 22:00N 38°02' E 023°33'0 0.0
2018-Jun-11 21:30N 38°02' E 023°33'0 0.0
2018-Jun-11 21:00N 38°02' E 023°33'0 0.0
2018-Jun-11 20:30N 38°02' E 023°33'0 0.0
2018-Jun-11 20:00N 38°02' E 023°33'0 0.0
2018-Jun-11 19:30N 38°02' E 023°33'0 0.0
2018-Jun-11 19:00N 38°02' E 023°33'0 0.0
2018-Jun-11 18:30N 38°02' E 023°33'0 0.0
2018-Jun-11 18:00N 38°02' E 023°33'0 0.0
2018-Jun-11 17:30N 38°02' E 023°33'0 0.0
2018-Jun-11 17:00N 38°02' E 023°33'0 0.0
2018-Jun-11 16:30N 38°02' E 023°33'0 0.0
2018-Jun-11 16:00N 38°02' E 023°33'0 0.0
2018-Jun-11 15:30N 38°02' E 023°33'0 0.0
2018-Jun-11 15:00N 38°02' E 023°33'0 0.0
2018-Jun-11 14:30N 38°02' E 023°33'0 0.0
2018-Jun-11 14:00N 38°02' E 023°33'0 0.0
2018-Jun-11 13:30N 38°02' E 023°33'0 0.0
2018-Jun-11 13:00N 38°02' E 023°33'0 0.0
2018-Jun-11 12:30N 38°02' E 023°33'0 0.0
2018-Jun-11 12:00N 38°02' E 023°33'0 0.0
2018-Jun-11 11:30N 38°02' E 023°33'0 0.0
2018-Jun-11 11:00N 38°02' E 023°33'0 0.0
2018-Jun-11 10:30N 38°02' E 023°33'0 0.0
2018-Jun-11 10:00N 38°02' E 023°33'0 0.0
2018-Jun-11 09:30N 38°02' E 023°33'0 0.0
2018-Jun-11 09:00N 38°02' E 023°33'0 0.0
2018-Jun-11 08:30N 38°02' E 023°33'0 0.0
2018-Jun-11 08:00N 38°02' E 023°33'0 0.0
2018-Jun-11 07:30N 38°02' E 023°33'0 0.0
2018-Jun-11 07:00N 38°02' E 023°33'0 0.0
2018-Jun-11 06:30N 38°02' E 023°33'0 0.0
2018-Jun-11 06:00N 38°02' E 023°33'0 0.0
2018-Jun-11 05:30N 38°02' E 023°33'0 0.0
2018-Jun-11 05:00N 38°02' E 023°33'0 0.0
2018-Jun-11 04:30N 38°02' E 023°33'0 0.0
2018-Jun-11 04:00N 38°02' E 023°33'0 0.0
2018-Jun-11 03:30N 38°02' E 023°33'0 0.0
2018-Jun-11 03:00N 38°02' E 023°33'0 0.0
2018-Jun-11 02:30N 38°02' E 023°33'0 0.0
2018-Jun-11 01:59N 38°02' E 023°33'0 0.0
2018-Jun-11 01:30N 38°02' E 023°33'0 0.0
2018-Jun-11 01:00N 38°02' E 023°33'0 0.0
2018-Jun-11 00:30N 38°02' E 023°33'0 0.0
2018-Jun-11 00:00N 38°02' E 023°33'0 0.0
2018-Jun-10 23:30N 38°02' E 023°33'0 0.0
2018-Jun-10 23:00N 38°02' E 023°33'0 0.0
2018-Jun-10 22:30N 38°02' E 023°33'0 0.0
2018-Jun-10 22:00N 38°02' E 023°33'0 0.0
2018-Jun-10 21:30N 38°02' E 023°33'0 0.0
2018-Jun-10 21:00N 38°02' E 023°33'0 0.0
2018-Jun-10 20:30N 38°02' E 023°33'0 0.0
2018-Jun-10 20:00N 38°02' E 023°33'0 0.0
2018-Jun-10 19:30N 38°02' E 023°33'0 0.0
2018-Jun-10 19:00N 38°02' E 023°33'0 0.0
2018-Jun-10 18:30N 38°02' E 023°33'0 0.0
2018-Jun-10 18:00N 38°02' E 023°33'0 0.0
2018-Jun-10 17:30N 38°02' E 023°33'0 0.0
2018-Jun-10 17:00N 38°02' E 023°33'0 0.0
2018-Jun-10 16:30N 38°02' E 023°33'0 0.0
2018-Jun-10 16:00N 38°02' E 023°33'0 0.0
2018-Jun-10 15:30N 38°02' E 023°33'0 0.0
2018-Jun-10 15:00N 38°02' E 023°33'0 0.0
2018-Jun-10 14:30N 38°02' E 023°33'4 3.7
2018-Jun-10 13:30N 37°58' E 023°33'5 9.8
2018-Jun-10 13:00N 37°54' E 023°36'510.7
2018-Jun-10 12:30N 37°50' E 023°40'510.5
2018-Jun-10 12:00N 37°45' E 023°43'510.5
2018-Jun-10 11:30N 37°41' E 023°46'4710.9
2018-Jun-10 07:13N 37°31' E 024°44'211.5
2018-Jun-10 07:00N 37°31' E 024°47'810.9
2018-Jun-10 06:18N 37°30' E 024°57'310.4
2018-Jun-10 06:00N 37°27' E 024°57'1 1.0
2018-Jun-10 05:00N 37°26' E 024°56'0 0.0
2018-Jun-10 04:29N 37°26' E 024°56'0 0.0
2018-Jun-10 03:05N 37°26' E 024°56'0 0.0
2018-Jun-10 03:00N 37°26' E 024°56'0 0.0
2018-Jun-09 23:56N 37°26' E 024°56'0 0.0
2018-Jun-09 23:22N 37°26' E 024°56'0 0.0
2018-Jun-09 23:00N 37°26' E 024°56'0 0.0
2018-Jun-09 22:28N 37°26' E 024°56'0 0.0
2018-Jun-09 21:59N 37°26' E 024°56'0 0.0
2018-Jun-09 21:29N 37°26' E 024°56'0 0.0
2018-Jun-09 21:00N 37°26' E 024°56'0 0.0
2018-Jun-09 20:21N 37°26' E 024°56'0 0.0
2018-Jun-09 19:59N 37°26' E 024°56'0 0.0
2018-Jun-09 19:03N 37°26' E 024°56'1 3.5
2018-Jun-09 18:52N 37°26' E 024°57'411.1
2018-Jun-09 18:30N 37°22' E 024°59'610.9
2018-Jun-09 17:59N 37°17' E 025°02'611.0
2018-Jun-09 17:27N 37°12' E 025°05'7 2.3
2018-Jun-09 14:17N 37°05' E 025°08'5 8.9
2018-Jun-09 13:41N 37°09' E 025°13'210.5
2018-Jun-09 13:30N 37°10' E 025°15'510.4
2018-Jun-09 13:00N 37°07' E 025°21'2 3.0
2018-Jun-09 12:30N 37°06' E 025°22'1 1.3
2018-Jun-09 12:00N 37°06' E 025°22'1 1.3
2018-Jun-09 11:30N 37°06' E 025°22'611.1
2018-Jun-09 11:00N 37°01' E 025°19'  

Dump ship's entire track history